createdAt,value
2022-12-08T00:01:15.246Z,19.58
2022-12-08T00:03:42.861Z,25.67
2022-12-08T00:06:45.461Z,23.58
2022-12-08T00:09:23.988Z,24.15
2022-12-08T00:12:01.031Z,23.05
2022-12-08T00:14:30.859Z,19.08
2022-12-08T00:16:58.693Z,20.20
2022-12-08T00:19:26.349Z,20.58
2022-12-08T00:21:54.399Z,20.25
2022-12-08T00:24:22.768Z,19.58
2022-12-08T00:26:49.943Z,18.45
2022-12-08T00:29:17.882Z,22.30
2022-12-08T00:31:45.269Z,16.85
2022-12-08T00:34:13.837Z,19.25
2022-12-08T00:36:41.136Z,16.67
2022-12-08T00:39:07.981Z,20.52
2022-12-08T00:41:53.561Z,17.65
2022-12-08T00:44:20.355Z,16.90
2022-12-08T00:46:48.328Z,19.73
2022-12-08T00:49:16.065Z,16.70
2022-12-08T00:51:43.802Z,19.38
2022-12-08T00:54:11.431Z,17.30
2022-12-08T00:56:38.634Z,20.05
2022-12-08T00:59:08.476Z,21.52
2022-12-08T01:01:36.272Z,19.65
2022-12-08T01:04:07.594Z,14.85
2022-12-08T01:06:38.986Z,16.35
2022-12-08T01:09:07.367Z,14.40
2022-12-08T01:11:35.239Z,19.70
2022-12-08T01:14:02.295Z,19.05
2022-12-08T01:16:34.132Z,16.00
2022-12-08T01:19:01.502Z,20.80
2022-12-08T01:21:28.931Z,21.67
2022-12-08T01:23:57.914Z,20.73
2022-12-08T01:26:24.722Z,16.20
2022-12-08T01:28:52.363Z,17.17
2022-12-08T01:31:20.747Z,19.15
2022-12-08T01:33:48.597Z,15.82
2022-12-08T01:36:27.020Z,14.45
2022-12-08T01:38:55.003Z,17.30
2022-12-08T01:41:24.524Z,12.82
2022-12-08T01:43:56.437Z,14.18
2022-12-08T01:46:24.488Z,15.65
2022-12-08T01:49:19.855Z,16.88
2022-12-08T01:51:52.646Z,20.98
2022-12-08T01:54:21.420Z,14.27
2022-12-08T01:56:52.221Z,11.50
2022-12-08T01:59:19.484Z,15.35
2022-12-08T02:01:46.507Z,12.48
2022-12-08T02:04:13.292Z,10.52
2022-12-08T02:06:43.299Z,15.52
2022-12-08T02:09:10.623Z,10.90
2022-12-08T02:11:37.508Z,10.80
2022-12-08T02:14:06.401Z,11.10
2022-12-08T02:16:37.124Z,14.43
2022-12-08T02:19:51.394Z,12.77
2022-12-08T02:22:40.123Z,13.93
2022-12-08T02:25:22.200Z,9.48
2022-12-08T02:28:20.718Z,12.70
2022-12-08T02:31:08.839Z,14.77
2022-12-08T02:33:44.460Z,11.10
2022-12-08T02:36:20.049Z,14.18
2022-12-08T02:39:11.650Z,11.48
2022-12-08T02:41:49.175Z,12.15
2022-12-08T02:44:40.773Z,11.45
2022-12-08T02:47:12.903Z,12.70
2022-12-08T02:49:39.927Z,14.38
2022-12-08T02:52:12.507Z,13.18
2022-12-08T02:54:50.082Z,11.35
2022-12-08T02:57:50.038Z,11.75
2022-12-08T03:00:22.541Z,10.02
2022-12-08T03:03:04.316Z,10.40
2022-12-08T03:05:36.976Z,11.10
2022-12-08T03:08:06.707Z,11.10
2022-12-08T03:10:43.517Z,14.10
2022-12-08T03:13:16.672Z,10.25
2022-12-08T03:15:47.936Z,9.88
2022-12-08T03:18:17.528Z,12.18
2022-12-08T03:20:46.238Z,12.65
2022-12-08T03:23:15.983Z,11.35
2022-12-08T03:25:58.198Z,11.07
2022-12-08T03:28:25.301Z,11.20
2022-12-08T03:30:57.761Z,9.13
2022-12-08T03:33:35.703Z,11.20
2022-12-08T03:36:06.385Z,12.43
2022-12-08T03:38:45.003Z,10.20
2022-12-08T03:41:21.209Z,9.57
2022-12-08T03:43:59.466Z,12.43
2022-12-08T03:48:53.966Z,9.02
2022-12-08T03:51:21.359Z,12.35
2022-12-08T03:53:48.163Z,12.32
2022-12-08T03:56:21.749Z,9.25
2022-12-08T03:58:48.485Z,11.52
2022-12-08T04:01:15.247Z,9.38
2022-12-08T04:03:42.102Z,9.05
2022-12-08T04:06:09.174Z,8.68
2022-12-08T04:08:36.030Z,10.00
2022-12-08T04:11:02.863Z,9.07
2022-12-08T04:13:30.145Z,9.15
2022-12-08T04:15:56.978Z,11.65
2022-12-08T04:18:23.784Z,9.85
2022-12-08T04:20:50.524Z,11.02
2022-12-08T04:23:17.275Z,14.27
2022-12-08T04:25:44.227Z,9.30
2022-12-08T04:28:11.260Z,11.68
2022-12-08T04:30:38.021Z,10.35
2022-12-08T04:33:05.041Z,7.68
2022-12-08T04:35:31.825Z,12.70
2022-12-08T04:37:58.692Z,11.27
2022-12-08T04:40:25.537Z,11.82
2022-12-08T04:42:52.255Z,10.70
2022-12-08T04:45:19.152Z,12.98
2022-12-08T04:47:46.788Z,11.63
2022-12-08T04:50:13.814Z,12.70
2022-12-08T04:52:40.678Z,9.52
2022-12-08T04:55:07.797Z,11.63
2022-12-08T04:57:34.744Z,13.82
2022-12-08T05:00:01.678Z,12.23
2022-12-08T05:02:28.754Z,12.55
2022-12-08T05:04:55.552Z,14.13
2022-12-08T05:07:22.294Z,13.90
2022-12-08T05:09:49.072Z,14.00
2022-12-08T05:12:15.998Z,17.90
2022-12-08T05:14:42.750Z,13.52
2022-12-08T05:17:10.003Z,13.00
2022-12-08T05:19:36.858Z,16.25
2022-12-08T05:22:03.682Z,16.20
2022-12-08T05:24:30.492Z,17.75
2022-12-08T05:26:57.618Z,19.60
2022-12-08T05:29:24.468Z,20.45
2022-12-08T05:31:51.343Z,14.23
2022-12-08T05:34:18.308Z,16.23
2022-12-08T05:36:45.184Z,15.68
2022-12-08T05:39:15.631Z,17.70
2022-12-08T05:41:42.407Z,15.23
2022-12-08T05:44:09.456Z,18.23
2022-12-08T05:46:36.674Z,17.40
2022-12-08T05:49:04.104Z,16.15
2022-12-08T05:51:30.931Z,19.60
2022-12-08T05:53:58.131Z,19.45
2022-12-08T05:56:25.103Z,18.98
2022-12-08T05:58:51.905Z,17.20
2022-12-08T06:01:27.470Z,21.38
2022-12-08T06:03:54.965Z,24.08
2022-12-08T06:06:22.133Z,24.63
2022-12-08T06:08:49.212Z,22.52
2022-12-08T06:11:27.366Z,23.55
2022-12-08T06:13:56.703Z,20.08
2022-12-08T06:16:26.057Z,21.63
2022-12-08T06:18:52.942Z,22.63
2022-12-08T06:21:20.042Z,21.70
2022-12-08T06:23:50.195Z,20.92
2022-12-08T06:26:18.302Z,21.83
2022-12-08T06:28:45.091Z,25.17
2022-12-08T06:31:23.622Z,21.70
2022-12-08T06:33:50.897Z,23.67
2022-12-08T06:36:19.340Z,25.90
2022-12-08T06:38:46.545Z,24.42
2022-12-08T06:41:14.063Z,23.65
2022-12-08T06:43:41.782Z,24.60
2022-12-08T06:46:12.263Z,23.98
2022-12-08T06:48:39.052Z,23.40
2022-12-08T06:51:17.658Z,24.02
2022-12-08T06:53:45.368Z,24.15
2022-12-08T06:56:13.471Z,22.50
2022-12-08T06:58:40.465Z,27.58
2022-12-08T07:01:09.965Z,26.88
2022-12-08T07:03:37.903Z,20.73
2022-12-08T07:06:05.449Z,27.75
2022-12-08T07:08:33.386Z,24.17
2022-12-08T07:11:00.285Z,19.58
2022-12-08T07:13:27.048Z,23.08
2022-12-08T07:15:53.993Z,20.60
2022-12-08T07:18:20.815Z,17.35
2022-12-08T07:20:47.596Z,22.50
2022-12-08T07:23:14.445Z,21.67
2022-12-08T07:25:41.251Z,19.63
2022-12-08T07:28:09.667Z,23.02
2022-12-08T07:30:36.841Z,23.17
2022-12-08T07:33:05.768Z,18.27
2022-12-08T07:35:34.847Z,19.40
2022-12-08T07:38:02.171Z,15.85
2022-12-08T07:40:29.161Z,16.17
2022-12-08T07:42:55.919Z,14.95
2022-12-08T07:45:26.934Z,16.80
2022-12-08T07:47:58.145Z,17.67
2022-12-08T07:50:24.910Z,16.38
2022-12-08T07:52:51.679Z,15.50
2022-12-08T07:55:18.395Z,15.20
2022-12-08T07:57:45.143Z,15.15
2022-12-08T08:00:12.542Z,13.63
2022-12-08T08:02:40.138Z,16.40
2022-12-08T08:05:07.670Z,16.00
2022-12-08T08:07:34.775Z,14.63
2022-12-08T08:10:01.827Z,13.98
2022-12-08T08:12:31.697Z,15.85
2022-12-08T08:15:03.523Z,15.07
2022-12-08T08:17:30.791Z,14.23
2022-12-08T08:19:57.740Z,18.52
2022-12-08T08:22:28.457Z,13.95
2022-12-08T08:24:55.254Z,14.20
2022-12-08T08:27:22.794Z,15.45
2022-12-08T08:29:49.525Z,14.60
2022-12-08T08:32:16.340Z,19.90
2022-12-08T08:34:43.068Z,14.25
2022-12-08T08:37:09.942Z,14.82
2022-12-08T08:39:36.880Z,16.33
2022-12-08T08:42:03.687Z,16.88
2022-12-08T08:44:30.530Z,16.92
2022-12-08T08:46:57.389Z,16.75
2022-12-08T08:49:24.147Z,14.40
2022-12-08T08:51:51.037Z,15.77
2022-12-08T08:54:17.823Z,16.70
2022-12-08T08:56:44.635Z,18.80
2022-12-08T08:59:11.453Z,19.40
2022-12-08T09:01:38.277Z,17.13
2022-12-08T09:04:05.238Z,15.43
2022-12-08T09:06:32.252Z,17.48
2022-12-08T09:08:59.144Z,16.15
2022-12-08T09:11:26.432Z,15.95
2022-12-08T09:13:54.501Z,20.27
2022-12-08T09:16:22.491Z,14.95
2022-12-08T09:18:49.723Z,16.00
2022-12-08T09:21:23.127Z,13.98
2022-12-08T09:23:51.379Z,16.90
2022-12-08T09:26:18.175Z,18.60
2022-12-08T09:28:46.638Z,16.10
2022-12-08T09:31:14.582Z,13.70
2022-12-08T09:33:44.790Z,15.05
2022-12-08T09:36:11.733Z,18.90
2022-12-08T09:38:40.235Z,17.33
2022-12-08T09:41:46.369Z,17.95
2022-12-08T09:44:59.936Z,19.50
2022-12-08T09:47:35.997Z,17.85
2022-12-08T09:50:34.915Z,20.45
2022-12-08T09:53:21.688Z,17.67
2022-12-08T09:55:55.844Z,17.83
2022-12-08T09:58:30.961Z,20.65
2022-12-08T10:00:57.846Z,17.15
2022-12-08T10:03:28.481Z,18.38
2022-12-08T10:06:01.632Z,15.13
2022-12-08T10:08:36.365Z,15.55
2022-12-08T10:11:11.244Z,17.80
2022-12-08T10:14:08.523Z,17.30
2022-12-08T10:16:41.125Z,15.25
2022-12-08T10:19:10.746Z,11.57
2022-12-08T10:21:39.165Z,10.75
2022-12-08T10:24:33.569Z,14.02
2022-12-08T10:27:02.263Z,9.63
2022-12-08T10:29:29.113Z,7.68
2022-12-08T10:32:00.255Z,9.00
2022-12-08T10:34:27.091Z,7.70
2022-12-08T10:36:56.491Z,9.25
2022-12-08T10:39:37.936Z,11.40
2022-12-08T10:42:21.874Z,10.48
2022-12-08T10:45:09.015Z,8.88
2022-12-08T10:47:40.085Z,11.13
2022-12-08T10:50:08.397Z,14.82
2022-12-08T10:52:39.835Z,11.38
2022-12-08T10:55:18.417Z,13.95
2022-12-08T10:57:45.325Z,13.45
2022-12-08T11:00:18.591Z,13.00
2022-12-08T11:02:57.894Z,12.65
2022-12-08T11:05:36.216Z,17.45
2022-12-08T11:08:05.856Z,11.65
2022-12-08T11:10:37.126Z,14.20
2022-12-08T11:13:18.789Z,16.25
2022-12-08T11:15:46.698Z,11.75
2022-12-08T11:18:31.077Z,13.63
2022-12-08T11:21:07.763Z,12.52
2022-12-08T11:23:36.914Z,14.05
2022-12-08T11:26:24.997Z,10.95
2022-12-08T11:28:52.255Z,14.55
2022-12-08T11:31:38.461Z,13.25
2022-12-08T11:34:06.712Z,16.98
2022-12-08T11:36:35.356Z,15.50
2022-12-08T11:39:05.679Z,10.65
2022-12-08T11:41:39.562Z,12.10
2022-12-08T11:44:29.299Z,12.27
2022-12-08T11:47:06.017Z,15.82
2022-12-08T11:49:39.489Z,16.33
2022-12-08T11:52:23.193Z,12.38
2022-12-08T11:54:57.140Z,13.40
2022-12-08T11:57:27.150Z,17.88
2022-12-08T11:59:57.824Z,11.85
2022-12-08T12:02:28.942Z,11.25
2022-12-08T12:05:07.634Z,12.25
2022-12-08T12:08:06.429Z,10.90
2022-12-08T12:10:53.582Z,12.55
2022-12-08T12:13:45.893Z,17.20
2022-12-08T12:16:23.186Z,13.68
2022-12-08T12:19:02.564Z,7.93
2022-12-08T12:21:38.908Z,10.80
2022-12-08T12:24:25.478Z,10.85
2022-12-08T12:27:15.403Z,10.60
2022-12-08T12:29:55.308Z,15.40
2022-12-08T12:32:23.196Z,15.00
2022-12-08T12:34:58.898Z,12.73
2022-12-08T12:37:36.580Z,13.85
2022-12-08T12:40:07.730Z,10.52
2022-12-08T12:42:44.380Z,15.02
2022-12-08T12:45:17.227Z,10.15
2022-12-08T12:48:12.358Z,14.68
2022-12-08T12:50:45.391Z,11.98
2022-12-08T12:53:18.897Z,11.25
2022-12-08T12:55:45.655Z,8.27
2022-12-08T12:58:27.234Z,10.60
2022-12-08T13:01:15.222Z,9.02
2022-12-08T13:03:56.653Z,10.88
2022-12-08T13:06:38.085Z,10.02
2022-12-08T13:09:06.032Z,8.63
2022-12-08T13:11:48.014Z,12.10
2022-12-08T13:14:32.699Z,8.25
2022-12-08T13:17:01.657Z,10.93
2022-12-08T13:19:32.202Z,11.18
2022-12-08T13:21:59.620Z,8.32
2022-12-08T13:24:33.873Z,9.00
2022-12-08T13:27:03.583Z,9.45
2022-12-08T13:29:35.433Z,9.60
2022-12-08T13:32:08.397Z,4.97
2022-12-08T13:37:24.605Z,6.25
2022-12-08T13:40:10.494Z,3.70
2022-12-08T13:42:53.107Z,6.43
2022-12-08T13:49:32.019Z,6.93
2022-12-08T13:57:30.572Z,9.90
2022-12-08T14:00:16.004Z,7.50
2022-12-08T14:02:48.084Z,7.93
2022-12-08T14:05:19.080Z,7.03
2022-12-08T14:07:49.877Z,6.93
2022-12-08T14:10:20.770Z,7.60
2022-12-08T14:12:56.925Z,5.50
2022-12-08T14:15:25.859Z,11.20
2022-12-08T14:17:54.833Z,5.80
2022-12-08T14:20:46.346Z,7.68
2022-12-08T14:23:19.829Z,8.52
2022-12-08T14:25:48.335Z,9.95
2022-12-08T14:28:15.056Z,9.52
2022-12-08T14:30:42.381Z,6.15
2022-12-08T14:33:15.028Z,9.10
2022-12-08T14:35:42.043Z,6.43
2022-12-08T14:38:22.919Z,9.07
2022-12-08T14:41:04.035Z,6.75
2022-12-08T14:43:31.631Z,9.25
2022-12-08T14:46:19.312Z,9.30
2022-12-08T14:48:46.475Z,8.90
2022-12-08T14:51:19.321Z,14.25
2022-12-08T14:56:46.424Z,11.23
2022-12-08T14:59:17.855Z,11.02
2022-12-08T15:01:45.651Z,9.68
2022-12-08T15:04:12.452Z,11.02
2022-12-08T15:06:57.960Z,10.40
2022-12-08T15:09:31.869Z,10.75
2022-12-08T15:12:26.743Z,8.88
2022-12-08T15:15:09.510Z,10.13
2022-12-08T15:17:41.700Z,9.90
2022-12-08T15:20:35.116Z,12.85
2022-12-08T15:23:02.798Z,7.68
2022-12-08T15:25:29.748Z,10.32
2022-12-08T15:27:57.880Z,11.07
2022-12-08T15:30:28.586Z,8.82
2022-12-08T15:32:56.212Z,8.60
2022-12-08T15:35:23.075Z,11.18
2022-12-08T15:37:50.010Z,9.38
2022-12-08T15:40:19.460Z,8.13
2022-12-08T15:42:46.232Z,7.57
2022-12-08T15:45:16.796Z,10.13
2022-12-08T15:47:44.499Z,8.25
2022-12-08T15:50:20.308Z,12.32
2022-12-08T15:52:47.771Z,10.52
2022-12-08T15:55:16.400Z,8.68
2022-12-08T16:00:52.329Z,9.27
2022-12-08T16:07:12.833Z,4.93
2022-12-08T16:09:19.223Z,8.52
2022-12-08T16:12:07.224Z,8.18
2022-12-08T16:17:22.668Z,9.30
2022-12-08T16:19:52.409Z,10.13
2022-12-08T16:25:20.403Z,6.38
2022-12-08T16:28:01.240Z,5.55
2022-12-08T16:30:30.129Z,4.72
2022-12-08T16:32:56.905Z,7.10
2022-12-08T16:35:24.156Z,10.15
2022-12-08T16:37:50.954Z,6.80
2022-12-08T16:40:17.760Z,7.32
2022-12-08T16:42:45.719Z,7.32
2022-12-08T16:45:20.041Z,9.07
2022-12-08T16:47:49.110Z,7.22
2022-12-08T16:50:19.781Z,8.70
2022-12-08T16:52:47.412Z,6.60
2022-12-08T16:55:17.699Z,10.13
2022-12-08T16:57:46.240Z,11.02
2022-12-08T17:00:16.425Z,9.13
2022-12-08T17:02:45.163Z,7.75
2022-12-08T17:05:15.155Z,9.18
2022-12-08T17:07:43.837Z,8.57
2022-12-08T17:10:13.901Z,7.68
2022-12-08T17:12:40.729Z,9.75
2022-12-08T17:15:13.521Z,12.07
2022-12-08T17:17:40.426Z,8.57
2022-12-08T17:20:10.064Z,9.80
2022-12-08T17:22:36.895Z,8.52
2022-12-08T17:25:05.355Z,10.70
2022-12-08T17:27:32.268Z,15.52
2022-12-08T17:29:59.280Z,19.67
2022-12-08T17:32:26.174Z,11.10
2022-12-08T17:34:53.050Z,12.15
2022-12-08T17:37:20.127Z,13.57
2022-12-08T17:39:46.897Z,14.27
2022-12-08T17:42:13.679Z,13.90
2022-12-08T17:44:40.550Z,9.77
2022-12-08T17:47:07.490Z,8.50
2022-12-08T17:49:34.609Z,11.05
2022-12-08T17:52:04.704Z,12.48
2022-12-08T17:54:31.565Z,12.45
2022-12-08T17:56:59.249Z,10.93
2022-12-08T17:59:27.492Z,11.82
2022-12-08T18:01:55.724Z,22.75
2022-12-08T18:04:22.666Z,20.40
2022-12-08T18:06:49.601Z,16.67
2022-12-08T18:09:16.710Z,18.77
2022-12-08T18:11:44.274Z,16.58
2022-12-08T18:14:11.870Z,18.35
2022-12-08T18:16:41.145Z,15.98
2022-12-08T18:19:09.047Z,13.40
2022-12-08T18:21:36.630Z,15.90
2022-12-08T18:24:04.267Z,18.63
2022-12-08T18:26:31.484Z,18.40
2022-12-08T18:28:58.342Z,13.93
2022-12-08T18:31:25.516Z,15.93
2022-12-08T18:33:52.807Z,17.15
2022-12-08T18:36:22.686Z,17.73
2022-12-08T18:38:49.639Z,15.65
2022-12-08T18:41:20.268Z,14.48
2022-12-08T18:43:47.102Z,13.90
2022-12-08T18:46:14.522Z,14.93
2022-12-08T18:48:44.129Z,16.85
2022-12-08T18:51:13.127Z,16.15
2022-12-08T18:53:40.074Z,20.65
2022-12-08T18:56:08.030Z,13.90
2022-12-08T18:58:35.488Z,17.63
2022-12-08T19:01:02.389Z,14.10
2022-12-08T19:03:29.508Z,12.38
2022-12-08T19:06:04.764Z,17.90
2022-12-08T19:08:31.926Z,20.33
2022-12-08T19:10:59.763Z,19.20
2022-12-08T19:13:27.310Z,20.50
2022-12-08T19:15:54.715Z,17.90
2022-12-08T19:18:22.118Z,14.05
2022-12-08T19:20:48.952Z,20.02
2022-12-08T19:23:16.011Z,17.00
2022-12-08T19:25:42.936Z,17.77
2022-12-08T19:28:09.874Z,16.80
2022-12-08T19:30:40.149Z,17.45
2022-12-08T19:33:08.311Z,19.73
2022-12-08T19:35:36.359Z,20.33
2022-12-08T19:38:03.485Z,18.90
2022-12-08T19:40:49.329Z,22.23
2022-12-08T19:43:35.997Z,19.17
2022-12-08T19:48:37.540Z,16.30
2022-12-08T19:51:05.341Z,16.52
2022-12-08T19:53:32.115Z,16.27
2022-12-08T19:55:59.017Z,17.45
2022-12-08T19:58:25.882Z,19.92
2022-12-08T20:00:52.776Z,17.50
2022-12-08T20:03:21.419Z,15.38
2022-12-08T20:05:50.087Z,16.23
2022-12-08T20:08:17.175Z,17.80
2022-12-08T20:10:45.373Z,14.35
2022-12-08T20:13:32.142Z,36.58
2022-12-08T20:15:59.321Z,14.85
2022-12-08T20:18:26.197Z,12.50
2022-12-08T20:20:53.322Z,15.05
2022-12-08T20:23:20.164Z,13.98
2022-12-08T20:25:47.859Z,12.75
2022-12-08T20:28:15.215Z,14.68
2022-12-08T20:30:43.085Z,11.85
2022-12-08T20:33:13.003Z,14.75
2022-12-08T20:35:39.883Z,15.68
2022-12-08T20:38:06.936Z,14.50
2022-12-08T20:40:33.825Z,16.92
2022-12-08T20:43:00.822Z,14.00
2022-12-08T20:45:27.770Z,11.48
2022-12-08T20:47:54.772Z,14.10
2022-12-08T20:50:21.911Z,11.35
2022-12-08T20:52:52.070Z,16.13
2022-12-08T20:55:19.090Z,14.75
2022-12-08T20:57:46.044Z,16.23
2022-12-08T21:00:13.227Z,12.00
2022-12-08T21:02:46.955Z,15.88
2022-12-08T21:05:16.391Z,11.50
2022-12-08T21:07:43.343Z,14.70
2022-12-08T21:10:11.631Z,13.13
2022-12-08T21:12:38.583Z,11.63
2022-12-08T21:15:08.156Z,15.50
2022-12-08T21:17:35.385Z,11.70
2022-12-08T21:20:02.499Z,11.32
2022-12-08T21:22:29.529Z,13.25
2022-12-08T21:24:57.250Z,18.98
2022-12-08T21:27:24.327Z,19.88
2022-12-08T21:29:51.438Z,13.50
2022-12-08T21:32:18.708Z,11.70
2022-12-08T21:34:45.908Z,14.73
2022-12-08T21:37:12.753Z,14.80
2022-12-08T21:39:39.736Z,12.00
2022-12-08T21:42:29.347Z,14.57
2022-12-08T21:45:00.890Z,9.68
2022-12-08T21:47:27.717Z,9.63
2022-12-08T21:49:54.785Z,10.95
2022-12-08T21:52:21.740Z,13.25
2022-12-08T21:54:48.545Z,10.65
2022-12-08T21:57:15.304Z,9.52
2022-12-08T21:59:42.234Z,11.57
2022-12-08T22:02:15.643Z,8.85
2022-12-08T22:04:47.972Z,12.48
2022-12-08T22:07:15.349Z,11.40
2022-12-08T22:09:42.216Z,12.50
2022-12-08T22:12:11.835Z,10.32
2022-12-08T22:14:40.027Z,16.20
2022-12-08T22:17:07.560Z,14.93
2022-12-08T22:19:34.898Z,12.38
2022-12-08T22:22:01.878Z,13.25
2022-12-08T22:24:31.748Z,12.10
2022-12-08T22:26:58.883Z,11.88
2022-12-08T22:29:25.737Z,10.27
2022-12-08T22:31:52.831Z,13.98
2022-12-08T22:34:19.618Z,9.93
2022-12-08T22:36:46.481Z,14.73
2022-12-08T22:39:13.313Z,11.02
2022-12-08T22:41:40.573Z,15.02
2022-12-08T22:44:07.995Z,8.98
2022-12-08T22:46:35.157Z,12.82
2022-12-08T22:49:02.562Z,15.80
2022-12-08T22:51:29.395Z,17.58
2022-12-08T22:53:56.208Z,12.80
2022-12-08T22:56:22.950Z,17.00
2022-12-08T22:58:51.198Z,11.57
2022-12-08T23:01:22.134Z,17.48
2022-12-08T23:03:49.422Z,10.98
2022-12-08T23:06:16.642Z,13.00
2022-12-08T23:08:44.486Z,11.10
2022-12-08T23:11:12.227Z,15.10
2022-12-08T23:13:39.863Z,12.63
2022-12-08T23:16:11.221Z,13.30
2022-12-08T23:18:41.042Z,13.95
2022-12-08T23:21:10.632Z,11.25
2022-12-08T23:23:38.102Z,15.88
2022-12-08T23:26:05.683Z,11.57
2022-12-08T23:28:32.548Z,10.38
2022-12-08T23:30:59.413Z,16.00
2022-12-08T23:33:26.259Z,11.48
2022-12-08T23:35:58.023Z,12.75
2022-12-08T23:38:25.991Z,12.00
2022-12-08T23:40:53.643Z,15.60
2022-12-08T23:43:20.810Z,14.18
2022-12-08T23:45:48.577Z,15.25
2022-12-08T23:48:15.515Z,15.65
2022-12-08T23:50:42.452Z,16.02
2022-12-08T23:53:09.247Z,15.82
2022-12-08T23:55:36.027Z,16.13
2022-12-08T23:58:03.015Z,15.38
